createdAt,value
2023-03-15T00:01:03.592Z,3.70
2023-03-15T00:03:39.943Z,3.20
2023-03-15T00:06:15.592Z,3.50
2023-03-15T00:08:50.038Z,3.50
2023-03-15T00:11:24.541Z,3.60
2023-03-15T00:13:59.065Z,3.80
2023-03-15T00:16:33.608Z,4.00
2023-03-15T00:19:07.836Z,3.70
2023-03-15T00:21:43.684Z,2.80
2023-03-15T00:24:18.356Z,3.10
2023-03-15T00:26:52.614Z,2.40
2023-03-15T00:29:27.075Z,2.40
2023-03-15T00:32:01.435Z,2.30
2023-03-15T00:34:37.258Z,2.50
2023-03-15T00:37:11.820Z,2.30
2023-03-15T00:39:46.459Z,2.20
2023-03-15T00:42:21.028Z,2.30
2023-03-15T00:44:56.554Z,1.90
2023-03-15T00:47:31.219Z,2.40
2023-03-15T00:50:07.769Z,2.00
2023-03-15T00:52:43.089Z,2.40
2023-03-15T00:55:21.901Z,2.60
2023-03-15T00:57:56.231Z,2.10
2023-03-15T01:00:30.873Z,2.30
2023-03-15T01:03:05.744Z,2.40
2023-03-15T01:05:40.908Z,1.80
2023-03-15T01:08:15.292Z,2.00
2023-03-15T01:10:49.646Z,1.60
2023-03-15T01:13:23.968Z,1.90
2023-03-15T01:15:58.504Z,1.50
2023-03-15T01:18:33.089Z,1.50
2023-03-15T01:21:09.200Z,1.40
2023-03-15T01:23:44.162Z,1.50
2023-03-15T01:26:20.340Z,1.60
2023-03-15T01:28:55.261Z,1.20
2023-03-15T01:31:31.753Z,1.50
2023-03-15T01:34:06.644Z,1.30
2023-03-15T01:36:41.266Z,1.80
2023-03-15T01:39:15.783Z,1.40
2023-03-15T01:41:52.305Z,0.90
2023-03-15T01:44:49.045Z,1.10
2023-03-15T01:47:26.163Z,1.20
2023-03-15T01:50:10.556Z,1.50
2023-03-15T01:52:47.503Z,1.20
2023-03-15T01:55:29.900Z,1.40
2023-03-15T01:58:20.312Z,1.20
2023-03-15T02:00:57.850Z,1.10
2023-03-15T02:03:39.268Z,1.90
2023-03-15T02:06:18.240Z,1.30
2023-03-15T02:09:05.806Z,1.40
2023-03-15T02:11:42.863Z,1.00
2023-03-15T02:14:18.766Z,1.40
2023-03-15T02:16:53.725Z,1.20
2023-03-15T02:19:50.118Z,1.60
2023-03-15T02:22:41.883Z,1.10
2023-03-15T02:25:27.929Z,1.20
2023-03-15T02:28:03.062Z,1.00
2023-03-15T02:30:37.912Z,0.80
2023-03-15T02:33:20.117Z,1.10
2023-03-15T02:35:54.780Z,0.70
2023-03-15T02:38:29.282Z,1.30
2023-03-15T02:41:03.869Z,0.90
2023-03-15T02:43:40.062Z,1.00
2023-03-15T02:46:16.376Z,0.80
2023-03-15T02:48:54.184Z,1.20
2023-03-15T02:51:31.489Z,0.70
2023-03-15T02:54:05.858Z,0.90
2023-03-15T02:56:40.312Z,1.50
2023-03-15T02:59:15.371Z,1.10
2023-03-15T03:01:50.056Z,0.90
2023-03-15T03:04:26.124Z,1.10
2023-03-15T03:07:00.635Z,0.80
2023-03-15T03:09:40.935Z,0.60
2023-03-15T03:12:16.796Z,1.00
2023-03-15T03:14:51.257Z,0.80
2023-03-15T03:17:28.667Z,1.10
2023-03-15T03:20:03.144Z,0.70
2023-03-15T03:22:41.465Z,0.70
2023-03-15T03:25:16.312Z,0.70
2023-03-15T03:27:50.645Z,0.90
2023-03-15T03:30:25.705Z,1.20
2023-03-15T03:33:00.057Z,0.60
2023-03-15T03:35:36.342Z,0.80
2023-03-15T03:38:11.020Z,0.90
2023-03-15T03:40:48.831Z,0.70
2023-03-15T03:43:23.787Z,1.30
2023-03-15T03:45:58.135Z,1.20
2023-03-15T03:48:34.102Z,1.30
2023-03-15T03:51:09.068Z,0.90
2023-03-15T03:53:43.667Z,1.30
2023-03-15T03:56:18.276Z,0.70
2023-03-15T03:58:52.679Z,0.60
2023-03-15T04:01:31.547Z,0.90
2023-03-15T04:04:07.087Z,1.00
2023-03-15T04:06:45.840Z,0.90
2023-03-15T04:09:22.031Z,0.60
2023-03-15T04:11:56.835Z,0.80
2023-03-15T04:14:31.924Z,1.10
2023-03-15T04:17:06.312Z,1.30
2023-03-15T04:19:40.683Z,1.10
2023-03-15T04:22:16.499Z,1.00
2023-03-15T04:25:11.672Z,1.30
2023-03-15T04:27:58.985Z,0.90
2023-03-15T04:30:58.874Z,1.10
2023-03-15T04:33:53.697Z,0.90
2023-03-15T04:36:45.069Z,1.00
2023-03-15T04:39:25.849Z,1.30
2023-03-15T04:42:23.138Z,0.80
2023-03-15T04:45:21.118Z,0.80
2023-03-15T04:48:14.081Z,1.50
2023-03-15T04:50:59.867Z,1.30
2023-03-15T04:53:53.337Z,1.40
2023-03-15T04:56:57.539Z,1.40
2023-03-15T04:59:51.133Z,1.00
2023-03-15T05:03:01.677Z,1.40
2023-03-15T05:06:09.156Z,0.90
2023-03-15T05:09:19.249Z,1.20
2023-03-15T05:12:08.479Z,1.10
2023-03-15T05:15:15.968Z,1.50
2023-03-15T05:18:11.027Z,1.40
2023-03-15T05:21:06.451Z,1.30
2023-03-15T05:23:52.616Z,1.70
2023-03-15T05:26:46.612Z,1.20
2023-03-15T05:29:43.941Z,4.90
2023-03-15T05:32:39.821Z,1.40
2023-03-15T05:35:37.685Z,0.80
2023-03-15T05:38:27.203Z,1.10
2023-03-15T05:41:21.740Z,1.10
2023-03-15T05:44:08.013Z,1.40
2023-03-15T05:47:05.321Z,1.50
2023-03-15T05:49:53.693Z,1.10
2023-03-15T05:52:41.402Z,0.90
2023-03-15T05:55:45.117Z,1.10
2023-03-15T05:58:46.079Z,1.30
2023-03-15T06:01:20.858Z,0.90
2023-03-15T06:04:15.593Z,1.00
2023-03-15T06:06:49.904Z,1.00
2023-03-15T06:09:25.623Z,1.00
2023-03-15T06:12:00.240Z,1.00
2023-03-15T06:14:37.459Z,1.50
2023-03-15T06:17:15.550Z,0.80
2023-03-15T06:19:51.020Z,0.80
2023-03-15T06:22:25.588Z,1.20
2023-03-15T06:25:04.405Z,1.10
2023-03-15T06:27:39.246Z,1.70
2023-03-15T06:30:17.284Z,17.00
2023-03-15T06:32:52.227Z,61.70
2023-03-15T06:35:27.116Z,69.10
2023-03-15T06:38:02.042Z,104.70
2023-03-15T06:40:36.676Z,38.90
2023-03-15T06:43:18.182Z,19.70
2023-03-15T06:45:53.679Z,9.60
2023-03-15T06:48:28.125Z,3.20
2023-03-15T06:51:04.177Z,6.80
2023-03-15T06:53:39.788Z,8.40
2023-03-15T06:56:14.943Z,7.20
2023-03-15T06:58:49.310Z,3.60
2023-03-15T07:01:23.712Z,2.80
2023-03-15T07:03:58.145Z,1.70
2023-03-15T07:06:32.632Z,1.60
2023-03-15T07:09:07.971Z,1.20
2023-03-15T07:11:42.214Z,1.30
2023-03-15T07:14:16.820Z,1.20
2023-03-15T07:16:52.124Z,0.90
2023-03-15T07:19:26.389Z,1.40
2023-03-15T07:22:01.004Z,0.90
2023-03-15T07:24:36.097Z,1.10
2023-03-15T07:27:14.574Z,1.20
2023-03-15T07:29:49.869Z,1.00
2023-03-15T07:32:24.323Z,1.10
2023-03-15T07:35:00.968Z,2.10
2023-03-15T07:37:35.486Z,3.60
2023-03-15T07:40:16.388Z,1.90
2023-03-15T07:42:50.709Z,1.40
2023-03-15T07:45:25.756Z,2.00
2023-03-15T07:48:00.843Z,1.30
2023-03-15T07:50:35.151Z,1.60
2023-03-15T07:53:11.090Z,1.00
2023-03-15T07:55:47.930Z,1.00
2023-03-15T07:58:23.020Z,1.40
2023-03-15T08:00:59.980Z,1.20
2023-03-15T08:03:34.418Z,1.60
2023-03-15T08:06:09.895Z,1.40
2023-03-15T08:08:44.769Z,1.10
2023-03-15T08:11:19.038Z,1.70
2023-03-15T08:13:53.116Z,1.10
2023-03-15T08:16:27.372Z,0.90
2023-03-15T08:19:02.100Z,0.80
2023-03-15T08:21:36.731Z,1.50
2023-03-15T08:24:11.873Z,1.30
2023-03-15T08:26:46.890Z,1.10
2023-03-15T08:29:22.759Z,0.80
2023-03-15T08:31:57.216Z,1.80
2023-03-15T08:34:32.771Z,1.40
2023-03-15T08:37:07.644Z,1.50
2023-03-15T08:39:42.522Z,1.80
2023-03-15T08:42:17.156Z,1.30
2023-03-15T08:44:51.445Z,0.80
2023-03-15T08:47:25.670Z,1.30
2023-03-15T08:50:00.182Z,0.90
2023-03-15T08:52:35.182Z,1.50
2023-03-15T08:55:14.494Z,0.80
2023-03-15T08:57:48.827Z,1.20
2023-03-15T09:00:24.729Z,0.90
2023-03-15T09:02:59.264Z,1.10
2023-03-15T09:05:34.268Z,0.70
2023-03-15T09:08:09.041Z,0.80
2023-03-15T09:10:44.236Z,3.90
2023-03-15T09:13:19.722Z,1.30
2023-03-15T09:15:57.806Z,1.10
2023-03-15T09:18:34.086Z,1.50
2023-03-15T09:21:10.014Z,1.10
2023-03-15T09:23:44.467Z,0.90
2023-03-15T09:26:19.062Z,1.70
2023-03-15T09:28:53.527Z,1.30
2023-03-15T09:31:28.304Z,1.70
2023-03-15T09:34:10.725Z,1.50
2023-03-15T09:36:45.538Z,1.80
2023-03-15T09:39:23.252Z,3.40
2023-03-15T09:42:04.224Z,3.90
2023-03-15T09:44:52.597Z,3.20
2023-03-15T09:47:44.361Z,1.70
2023-03-15T09:50:27.321Z,2.20
2023-03-15T09:53:06.670Z,1.20
2023-03-15T09:55:42.999Z,1.30
2023-03-15T09:58:22.726Z,1.00
2023-03-15T10:01:02.128Z,0.90
2023-03-15T10:03:45.725Z,0.80
2023-03-15T10:06:27.374Z,1.00
2023-03-15T10:09:05.927Z,1.10
2023-03-15T10:11:53.380Z,1.50
2023-03-15T10:14:49.226Z,1.10
2023-03-15T10:17:36.983Z,0.80
2023-03-15T10:20:18.945Z,0.90
2023-03-15T10:23:00.891Z,1.50
2023-03-15T10:25:37.899Z,0.80
2023-03-15T10:28:22.255Z,0.70
2023-03-15T10:31:01.396Z,1.00
2023-03-15T10:33:38.394Z,1.00
2023-03-15T10:36:21.102Z,1.90
2023-03-15T10:38:56.919Z,0.80
2023-03-15T10:41:43.127Z,1.10
2023-03-15T10:44:21.562Z,1.40
2023-03-15T10:47:23.580Z,0.70
2023-03-15T10:50:03.082Z,1.20
2023-03-15T10:52:46.102Z,1.00
2023-03-15T10:55:31.335Z,1.20
2023-03-15T10:58:30.501Z,1.00
2023-03-15T11:01:08.328Z,1.20
2023-03-15T11:03:45.518Z,0.70
2023-03-15T11:06:30.027Z,0.70
2023-03-15T11:09:17.004Z,0.80
2023-03-15T11:12:01.678Z,0.80
2023-03-15T11:14:41.983Z,0.90
2023-03-15T11:17:23.215Z,0.60
2023-03-15T11:20:11.797Z,0.70
2023-03-15T11:22:46.551Z,0.80
2023-03-15T11:25:33.271Z,0.70
2023-03-15T11:28:12.758Z,0.60
2023-03-15T11:30:49.491Z,0.70
2023-03-15T11:33:49.575Z,0.70
2023-03-15T11:36:28.721Z,0.60
2023-03-15T11:39:06.731Z,1.10
2023-03-15T11:41:49.488Z,0.80
2023-03-15T11:44:36.007Z,0.80
2023-03-15T11:47:23.941Z,0.90
2023-03-15T11:50:00.114Z,0.90
2023-03-15T11:52:34.545Z,0.60
2023-03-15T11:55:17.083Z,0.80
2023-03-15T11:57:53.535Z,0.70
2023-03-15T12:01:02.004Z,0.70
2023-03-15T12:03:41.587Z,0.90
2023-03-15T12:06:42.033Z,0.70
2023-03-15T12:09:52.344Z,0.80
2023-03-15T12:12:48.624Z,0.90
2023-03-15T12:15:53.500Z,1.10
2023-03-15T12:18:46.182Z,0.90
2023-03-15T12:21:25.156Z,0.90
2023-03-15T12:24:06.778Z,1.00
2023-03-15T12:26:47.856Z,0.80
2023-03-15T12:29:27.667Z,0.90
2023-03-15T12:32:10.072Z,0.90
2023-03-15T12:34:52.245Z,1.10
2023-03-15T12:37:40.371Z,1.00
2023-03-15T12:40:52.263Z,1.30
2023-03-15T12:43:44.702Z,1.10
2023-03-15T12:46:56.954Z,1.00
2023-03-15T12:49:39.251Z,1.30
2023-03-15T12:52:41.587Z,1.40
2023-03-15T12:55:21.630Z,0.80
2023-03-15T12:57:59.467Z,1.00
2023-03-15T13:00:36.765Z,1.00
2023-03-15T13:03:16.768Z,1.00
2023-03-15T13:06:06.216Z,1.20
2023-03-15T13:08:51.883Z,1.00
2023-03-15T13:11:34.146Z,0.90
2023-03-15T13:14:35.040Z,1.10
2023-03-15T13:17:23.036Z,1.50
2023-03-15T13:20:19.983Z,1.00
2023-03-15T13:23:12.605Z,0.90
2023-03-15T13:26:03.955Z,0.80
2023-03-15T13:28:42.473Z,1.00
2023-03-15T13:31:25.023Z,0.60
2023-03-15T13:34:12.381Z,0.80
2023-03-15T13:36:55.033Z,0.80
2023-03-15T13:39:32.457Z,0.70
2023-03-15T13:42:19.253Z,0.90
2023-03-15T13:45:05.687Z,1.40
2023-03-15T13:47:41.178Z,1.40
2023-03-15T13:50:21.270Z,1.40
2023-03-15T13:52:59.566Z,1.20
2023-03-15T13:55:38.728Z,1.00
2023-03-15T13:58:14.639Z,1.00
2023-03-15T14:00:49.370Z,0.90
2023-03-15T14:03:26.751Z,0.90
2023-03-15T14:06:02.346Z,0.90
2023-03-15T14:08:39.349Z,0.80
2023-03-15T14:11:32.802Z,0.90
2023-03-15T14:14:24.675Z,1.00
2023-03-15T14:17:05.771Z,0.70
2023-03-15T14:19:41.652Z,0.90
2023-03-15T14:22:21.433Z,0.90
2023-03-15T14:24:56.761Z,1.70
2023-03-15T14:27:33.737Z,1.80
2023-03-15T14:30:23.952Z,1.10
2023-03-15T14:33:04.728Z,2.00
2023-03-15T14:35:48.622Z,1.60
2023-03-15T14:38:28.091Z,1.50
2023-03-15T14:41:33.539Z,1.30
2023-03-15T14:44:08.447Z,1.40
2023-03-15T14:46:43.062Z,1.90
2023-03-15T14:49:26.849Z,1.40
2023-03-15T14:52:06.137Z,1.30
2023-03-15T14:54:41.452Z,1.30
2023-03-15T14:57:16.749Z,0.90
2023-03-15T14:59:53.027Z,1.30
2023-03-15T15:02:27.641Z,1.60
2023-03-15T15:05:04.499Z,0.70
2023-03-15T15:24:53.807Z,1.70
2023-03-15T15:27:28.361Z,2.90
2023-03-15T15:30:03.057Z,1.90
2023-03-15T15:32:37.870Z,1.90
2023-03-15T15:35:15.689Z,1.50
2023-03-15T15:37:53.133Z,1.70
2023-03-15T15:40:32.532Z,1.40
2023-03-15T15:43:07.320Z,1.40
2023-03-15T15:45:42.041Z,1.40
2023-03-15T15:48:16.593Z,1.90
2023-03-15T15:50:51.259Z,1.50
2023-03-15T15:53:26.232Z,1.70
2023-03-15T15:56:01.974Z,1.80
2023-03-15T15:58:37.029Z,2.00
2023-03-15T16:01:15.295Z,1.80
2023-03-15T16:03:49.595Z,1.40
2023-03-15T16:06:26.663Z,1.40
2023-03-15T16:09:01.496Z,1.30
2023-03-15T16:11:36.081Z,1.60
2023-03-15T16:14:13.182Z,1.20
2023-03-15T16:16:48.620Z,1.60
2023-03-15T16:19:22.725Z,1.70
2023-03-15T16:21:57.975Z,1.50
2023-03-15T16:24:36.540Z,1.70
2023-03-15T16:27:14.494Z,1.20
2023-03-15T16:29:53.037Z,1.50
2023-03-15T16:32:43.440Z,1.60
2023-03-15T16:35:19.661Z,1.50
2023-03-15T16:37:57.087Z,2.50
2023-03-15T16:40:34.459Z,2.70
2023-03-15T16:43:10.972Z,2.40
2023-03-15T16:45:45.317Z,2.10
2023-03-15T16:48:19.800Z,2.30
2023-03-15T16:50:55.456Z,2.20
2023-03-15T16:53:29.688Z,3.10
2023-03-15T16:56:04.202Z,3.20
2023-03-15T16:58:38.618Z,3.30
2023-03-15T17:01:14.539Z,3.40
2023-03-15T17:03:49.354Z,3.70
2023-03-15T17:06:25.847Z,4.10
2023-03-15T17:09:25.704Z,4.30
2023-03-15T17:12:00.196Z,3.90
2023-03-15T17:14:38.720Z,3.70
2023-03-15T17:17:13.639Z,4.40
2023-03-15T17:19:48.306Z,3.90
2023-03-15T17:22:23.455Z,3.90
2023-03-15T17:24:58.410Z,4.30
2023-03-15T17:27:40.561Z,5.10
2023-03-15T17:30:24.462Z,7.00
2023-03-15T17:32:59.311Z,7.50
2023-03-15T17:35:37.032Z,7.30
2023-03-15T17:38:21.911Z,8.40
2023-03-15T17:40:56.918Z,8.20
2023-03-15T17:43:31.497Z,7.60
2023-03-15T17:46:06.271Z,7.30
2023-03-15T17:48:40.957Z,8.80
2023-03-15T17:51:27.305Z,9.10
2023-03-15T17:54:03.009Z,9.40
2023-03-15T17:56:37.253Z,9.60
2023-03-15T17:59:14.122Z,8.40
2023-03-15T18:01:49.262Z,8.60
2023-03-15T18:04:25.045Z,7.30
2023-03-15T18:06:59.752Z,6.60
2023-03-15T18:09:34.374Z,4.90
2023-03-15T18:12:14.932Z,5.40
2023-03-15T18:14:50.272Z,4.80
2023-03-15T18:17:24.384Z,5.00
2023-03-15T18:19:58.856Z,4.70
2023-03-15T18:22:33.864Z,4.80
2023-03-15T18:25:10.156Z,4.90
2023-03-15T18:27:45.215Z,6.00
2023-03-15T18:30:23.320Z,4.70
2023-03-15T18:32:58.483Z,4.50
2023-03-15T18:35:36.713Z,5.10
2023-03-15T18:38:11.327Z,5.40
2023-03-15T18:40:46.138Z,5.00
2023-03-15T18:43:21.032Z,5.50
2023-03-15T18:45:56.270Z,5.00
2023-03-15T18:48:40.535Z,6.90
2023-03-15T18:51:18.218Z,7.50
2023-03-15T18:53:53.093Z,6.50
2023-03-15T18:56:34.370Z,7.10
2023-03-15T18:59:08.978Z,7.00
2023-03-15T19:01:44.061Z,7.50
2023-03-15T19:04:19.703Z,7.40
2023-03-15T19:06:54.777Z,7.90
2023-03-15T19:09:29.397Z,7.80
2023-03-15T19:12:04.517Z,8.90
2023-03-15T19:14:39.348Z,10.10
2023-03-15T19:17:14.118Z,10.00
2023-03-15T19:19:48.486Z,9.80
2023-03-15T19:22:23.175Z,10.60
2023-03-15T19:24:58.199Z,10.00
2023-03-15T19:27:32.864Z,9.70
2023-03-15T19:30:10.117Z,8.70
2023-03-15T19:32:45.781Z,8.20
2023-03-15T19:35:21.577Z,7.80
2023-03-15T19:37:57.183Z,11.10
2023-03-15T19:40:31.760Z,9.40
2023-03-15T19:43:06.315Z,11.80
2023-03-15T19:45:40.880Z,13.20
2023-03-15T19:48:16.558Z,13.00
2023-03-15T19:50:52.148Z,13.80
2023-03-15T19:53:27.071Z,15.10
2023-03-15T19:56:05.261Z,13.10
2023-03-15T19:58:42.946Z,13.20
2023-03-15T20:01:17.493Z,13.70
2023-03-15T20:03:52.290Z,13.10
2023-03-15T20:06:26.894Z,13.10
2023-03-15T20:09:01.879Z,14.60
2023-03-15T20:11:37.007Z,16.30
2023-03-15T20:14:11.623Z,14.80
2023-03-15T20:16:46.402Z,12.50
2023-03-15T20:19:21.259Z,12.60
2023-03-15T20:21:56.249Z,13.90
2023-03-15T20:24:30.961Z,16.50
2023-03-15T20:27:05.435Z,16.30
2023-03-15T20:29:39.916Z,13.60
2023-03-15T20:32:14.485Z,12.50
2023-03-15T20:34:49.150Z,13.40
2023-03-15T20:37:23.491Z,13.90
2023-03-15T20:39:58.130Z,11.80
2023-03-15T20:42:33.092Z,11.70
2023-03-15T20:45:09.746Z,11.80
2023-03-15T20:47:44.708Z,13.60
2023-03-15T20:50:19.438Z,14.20
2023-03-15T20:52:53.960Z,12.70
2023-03-15T20:55:28.614Z,10.90
2023-03-15T20:58:03.201Z,10.60
2023-03-15T21:00:41.025Z,11.30
2023-03-15T21:03:17.149Z,10.40
2023-03-15T21:05:51.994Z,9.70
2023-03-15T21:08:26.472Z,9.70
2023-03-15T21:11:00.977Z,10.50
2023-03-15T21:13:36.289Z,11.30
2023-03-15T21:16:12.459Z,10.30
2023-03-15T21:18:51.828Z,9.00
2023-03-15T21:21:26.499Z,9.10
2023-03-15T21:24:02.199Z,10.70
2023-03-15T21:26:36.852Z,10.80
2023-03-15T21:29:12.348Z,9.30
2023-03-15T21:31:46.732Z,8.70
2023-03-15T21:34:21.742Z,10.50
2023-03-15T21:36:56.413Z,11.60
2023-03-15T21:39:30.763Z,11.20
2023-03-15T21:42:05.478Z,9.90
2023-03-15T21:44:40.101Z,10.60
2023-03-15T21:47:16.775Z,11.10
2023-03-15T21:49:54.149Z,11.90
2023-03-15T21:52:28.814Z,11.50
2023-03-15T21:55:05.001Z,11.30
2023-03-15T21:57:39.486Z,10.80
2023-03-15T22:00:18.778Z,10.60
2023-03-15T22:02:55.799Z,12.30
2023-03-15T22:05:30.509Z,11.70
2023-03-15T22:08:05.228Z,10.70
2023-03-15T22:10:39.900Z,10.90
2023-03-15T22:13:14.677Z,12.10
2023-03-15T22:15:49.596Z,14.80
2023-03-15T22:18:28.580Z,13.20
2023-03-15T22:21:03.252Z,11.80
2023-03-15T22:23:37.700Z,11.60
2023-03-15T22:26:12.549Z,14.60
2023-03-15T22:28:47.245Z,14.30
2023-03-15T22:31:21.781Z,12.30
2023-03-15T22:33:56.374Z,12.40
2023-03-15T22:36:33.776Z,12.30
2023-03-15T22:39:09.107Z,16.00
2023-03-15T22:41:43.760Z,15.50
2023-03-15T22:44:18.612Z,12.70
2023-03-15T22:46:53.505Z,13.70
2023-03-15T22:49:27.914Z,14.40
2023-03-15T22:52:03.245Z,17.40
2023-03-15T22:54:37.600Z,16.10
2023-03-15T22:57:12.621Z,15.30
2023-03-15T22:59:46.989Z,15.00
2023-03-15T23:02:21.701Z,15.50
2023-03-15T23:04:56.149Z,17.90
2023-03-15T23:07:30.598Z,17.30
2023-03-15T23:10:06.149Z,14.60
2023-03-15T23:12:41.371Z,14.50
2023-03-15T23:15:16.863Z,16.50
2023-03-15T23:17:54.646Z,16.40
2023-03-15T23:20:30.248Z,16.50
2023-03-15T23:23:04.912Z,14.60
2023-03-15T23:25:43.200Z,14.10
2023-03-15T23:28:21.939Z,13.90
2023-03-15T23:30:56.753Z,16.80
2023-03-15T23:33:34.058Z,17.70
2023-03-15T23:36:10.335Z,17.30
2023-03-15T23:38:44.829Z,17.80
2023-03-15T23:41:19.198Z,17.30
2023-03-15T23:43:53.935Z,20.70
2023-03-15T23:46:28.728Z,19.50
2023-03-15T23:49:03.212Z,18.60
2023-03-15T23:51:38.905Z,16.80
2023-03-15T23:54:13.390Z,15.80
2023-03-15T23:56:48.179Z,19.20
2023-03-15T23:59:22.720Z,20.60
